Time;durP1;ratioP1;P1;durP2;ratioP2;P2;SDS_P1;SDS_P2;PMS_P1;PMS_P2;Temp;Humidity;BMP_temperature;BMP_pressure;BME280_temperature;BME280_humidity;BME280_pressure;Samples;Min_cycle;Max_cycle;Signal;HPM_P1;HPM_P2
2022/10/26 00:02:12;;;;;;;12.82;5.25;;;;;;;11.39;100.00;100779.75;4960704;28;20584;-81
2022/10/26 00:04:38;;;;;;;7.88;4.70;;;;;;;11.38;100.00;100776.31;4960952;28;20071;-80
2022/10/26 00:07:05;;;;;;;11.20;4.80;;;;;;;11.38;100.00;100776.31;4959869;28;20138;-81
2022/10/26 00:09:32;;;;;;;12.45;5.10;;;;;;;11.41;100.00;100781.25;4959589;28;20122;-81
2022/10/26 00:11:58;;;;;;;9.10;4.68;;;;;;;11.46;100.00;100767.69;4960995;29;20090;-81
2022/10/26 00:14:28;;;;;;;10.48;5.18;;;;;;;11.49;100.00;100773.41;4960930;29;20118;-80
2022/10/26 00:16:54;;;;;;;8.13;4.57;;;;;;;11.51;100.00;100762.78;4959571;29;20115;-81
2022/10/26 00:19:21;;;;;;;13.70;5.30;;;;;;;11.53;100.00;100766.88;4959714;29;20138;-81
2022/10/26 00:21:48;;;;;;;8.50;4.50;;;;;;;11.54;100.00;100770.34;4959356;29;20134;-81
2022/10/26 00:24:15;;;;;;;8.68;4.70;;;;;;;11.55;100.00;100767.56;4959135;28;20070;-81
2022/10/26 00:26:41;;;;;;;13.32;5.18;;;;;;;11.50;100.00;100769.81;4960450;28;20173;-81
2022/10/26 00:29:08;;;;;;;7.70;4.88;;;;;;;11.56;100.00;100771.00;4959985;28;20097;-81
2022/10/26 00:31:36;;;;;;;9.40;5.70;;;;;;;11.52;100.00;100769.66;4958183;28;20481;-79
2022/10/26 00:34:03;;;;;;;9.73;4.82;;;;;;;11.55;100.00;100770.16;4959038;28;20130;-78
2022/10/26 00:36:29;;;;;;;8.45;4.20;;;;;;;11.54;100.00;100789.50;4958480;28;20059;-79
2022/10/26 00:38:58;;;;;;;7.63;4.40;;;;;;;11.52;100.00;100773.09;4961811;29;20108;-79
2022/10/26 00:41:26;;;;;;;8.10;4.40;;;;;;;11.48;100.00;100763.09;4960093;29;20131;-78
2022/10/26 00:43:53;;;;;;;8.00;4.55;;;;;;;11.52;100.00;100775.72;4960935;28;20051;-80
2022/10/26 00:46:24;;;;;;;8.77;4.60;;;;;;;11.56;100.00;100779.69;4960356;28;20491;-79
2022/10/26 00:48:58;;;;;;;7.75;4.60;;;;;;;11.57;100.00;100777.88;4960748;28;20074;-79
2022/10/26 00:54:23;;;;;;;12.32;5.07;;;;;;;11.45;100.00;100748.50;4958939;29;20059;-80
2022/10/26 00:56:53;;;;;;;7.50;4.50;;;;;;;11.54;100.00;100759.84;4961097;29;20063;-79
2022/10/26 00:59:21;;;;;;;7.63;4.60;;;;;;;11.60;100.00;100764.47;4960140;28;20472;-79
2022/10/26 01:01:49;;;;;;;7.43;4.53;;;;;;;11.61;100.00;100764.31;4962282;28;20086;-79
2022/10/26 01:04:17;;;;;;;7.88;4.60;;;;;;;11.62;100.00;100768.56;4961425;28;20053;-79
2022/10/26 01:06:45;;;;;;;9.88;4.72;;;;;;;11.66;100.00;100760.38;4960639;28;20062;-79
2022/10/26 01:09:13;;;;;;;13.18;5.57;;;;;;;11.62;100.00;100749.38;4960944;28;20120;-79
2022/10/26 01:11:39;;;;;;;8.63;4.38;;;;;;;11.71;100.00;100745.00;4960947;28;20126;-79
2022/10/26 01:14:09;;;;;;;7.00;4.30;;;;;;;11.74;100.00;100752.53;4961260;28;20089;-78
2022/10/26 01:16:50;;;;;;;6.78;4.10;;;;;;;11.72;100.00;100751.88;4959803;28;20058;-79
2022/10/26 01:19:52;;;;;;;8.55;4.28;;;;;;;11.74;100.00;100735.00;4959500;28;20134;-79
2022/10/26 01:22:22;;;;;;;10.52;4.22;;;;;;;11.75;100.00;100735.84;4960238;28;20055;-81
2022/10/26 01:25:16;;;;;;;7.25;4.20;;;;;;;11.75;100.00;100733.22;4959921;28;20062;-80
2022/10/26 01:27:45;;;;;;;7.88;4.35;;;;;;;11.74;100.00;100723.72;4958698;29;20075;-81
2022/10/26 01:30:19;;;;;;;9.82;4.53;;;;;;;11.72;100.00;100723.88;4960423;28;20115;-81
2022/10/26 01:32:56;;;;;;;7.90;4.00;;;;;;;11.74;100.00;100728.94;4942076;29;20139;-80
2022/10/26 01:35:30;;;;;;;7.80;4.15;;;;;;;11.74;100.00;100724.53;4953048;28;20048;-79
2022/10/26 01:38:02;;;;;;;11.85;4.60;;;;;;;11.71;100.00;100719.59;4969881;28;20090;-78
2022/10/26 01:40:35;;;;;;;10.57;4.23;;;;;;;11.73;100.00;100724.69;4969263;28;20106;-79
2022/10/26 01:43:08;;;;;;;8.65;4.18;;;;;;;11.72;100.00;100715.19;4970386;28;20110;-80
2022/10/26 01:45:40;;;;;;;9.00;4.60;;;;;;;11.78;100.00;100719.81;4969339;28;20099;-80
2022/10/26 01:48:09;;;;;;;6.90;3.80;;;;;;;11.78;100.00;100719.81;4967860;28;20514;-79
2022/10/26 01:50:37;;;;;;;9.57;4.18;;;;;;;11.77;100.00;100724.25;4970658;28;20090;-79
2022/10/26 01:53:04;;;;;;;10.00;4.38;;;;;;;11.79;100.00;100713.59;4970301;28;20091;-79
2022/10/26 01:55:43;;;;;;;13.65;4.22;;;;;;;11.74;100.00;100708.78;4968789;28;20074;-78
2022/10/26 01:58:21;;;;;;;8.25;4.50;;;;;;;11.74;100.00;100703.56;4962712;28;20525;-79
2022/10/26 02:00:56;;;;;;;9.30;4.22;;;;;;;11.86;100.00;100712.75;4961937;28;20122;-80
2022/10/26 02:03:30;;;;;;;17.83;4.50;;;;;;;11.90;100.00;100708.81;4961668;28;20083;-79
2022/10/26 02:06:06;;;;;;;12.82;4.10;;;;;;;11.91;100.00;100704.41;4962252;28;20058;-80
2022/10/26 02:08:52;;;;;;;11.80;3.90;;;;;;;11.90;100.00;100703.59;4962225;28;20070;-79
2022/10/26 02:11:28;;;;;;;9.77;4.03;;;;;;;11.93;100.00;100707.69;4961037;28;20480;-79
2022/10/26 02:14:01;;;;;;;9.73;3.95;;;;;;;11.98;100.00;100694.09;4961527;28;20138;-79
2022/10/26 02:16:37;;;;;;;8.63;3.90;;;;;;;12.02;100.00;100696.22;4961074;28;20130;-79
2022/10/26 02:19:10;;;;;;;9.82;4.10;;;;;;;12.06;100.00;100689.66;4960995;28;20101;-79
2022/10/26 02:21:39;;;;;;;14.38;4.50;;;;;;;12.10;100.00;100688.34;4960353;28;20094;-79
2022/10/26 02:24:11;;;;;;;9.02;4.18;;;;;;;12.12;100.00;100678.53;4961307;28;20134;-80
2022/10/26 02:26:41;;;;;;;16.02;4.50;;;;;;;12.13;100.00;100671.47;4961669;28;20109;-80
2022/10/26 02:29:11;;;;;;;8.40;3.95;;;;;;;12.17;100.00;100676.22;4960688;28;20051;-79
2022/10/26 02:31:41;;;;;;;8.35;4.10;;;;;;;12.18;100.00;100679.66;4960814;28;20134;-79
2022/10/26 02:34:11;;;;;;;6.43;4.18;;;;;;;12.18;100.00;100679.66;4961324;28;20243;-79
2022/10/26 02:36:42;;;;;;;10.48;4.20;;;;;;;12.19;100.00;100678.69;4960730;28;20083;-79
2022/10/26 02:39:11;;;;;;;8.15;3.97;;;;;;;12.16;100.00;100685.06;4959848;28;20133;-80
2022/10/26 02:41:40;;;;;;;6.78;3.83;;;;;;;12.18;100.00;100679.66;4959925;28;20089;-79
2022/10/26 02:44:13;;;;;;;7.10;4.07;;;;;;;12.15;100.00;100670.31;4961172;28;20513;-79
2022/10/26 02:46:42;;;;;;;7.65;4.30;;;;;;;12.14;100.00;100673.94;4961170;28;20155;-79
2022/10/26 02:49:09;;;;;;;6.05;4.10;;;;;;;12.20;100.00;100673.28;4960355;28;20051;-80
2022/10/26 02:51:43;;;;;;;6.55;3.80;;;;;;;12.19;100.00;100673.44;4964906;28;20051;-80
2022/10/26 02:54:16;;;;;;;10.55;4.63;;;;;;;12.20;100.00;100677.69;4964473;28;20079;-80
2022/10/26 02:56:49;;;;;;;8.48;4.78;;;;;;;12.20;100.00;100673.28;4965309;28;20135;-80
2022/10/26 02:59:19;;;;;;;8.50;4.63;;;;;;;12.15;100.00;100675.56;4961923;28;20463;-79
2022/10/26 03:01:48;;;;;;;9.77;4.00;;;;;;;12.19;100.00;100674.25;4960826;28;20107;-80
2022/10/26 03:04:14;;;;;;;11.93;4.07;;;;;;;12.18;100.00;100664.75;4961122;28;20139;-80
2022/10/26 03:06:41;;;;;;;8.13;3.67;;;;;;;12.20;100.00;100665.41;4963891;28;20111;-80
2022/10/26 03:09:08;;;;;;;6.18;4.13;;;;;;;12.23;100.00;100661.63;4962711;28;20050;-80
2022/10/26 03:11:35;;;;;;;8.32;3.80;;;;;;;12.24;100.00;100664.09;4964095;28;20425;-80
2022/10/26 03:14:05;;;;;;;7.93;3.95;;;;;;;12.34;100.00;100657.81;4964432;28;20085;-80
2022/10/26 03:16:32;;;;;;;6.53;4.00;;;;;;;12.41;100.00;100653.53;4964402;28;20437;-79
2022/10/26 03:19:00;;;;;;;5.40;3.33;;;;;;;12.36;100.00;100653.22;4964117;28;20075;-80
2022/10/26 03:21:27;;;;;;;8.82;3.70;;;;;;;12.37;100.00;100655.69;4964409;28;20110;-79
2022/10/26 03:23:54;;;;;;;7.57;3.97;;;;;;;12.35;100.00;100665.53;4965160;28;20054;-79
2022/10/26 03:26:20;;;;;;;10.60;4.18;;;;;;;12.39;100.00;100664.22;4965717;28;20134;-79
2022/10/26 03:28:47;;;;;;;6.47;3.92;;;;;;;12.38;100.00;100657.31;4965718;28;20082;-79
2022/10/26 03:31:13;;;;;;;10.00;3.92;;;;;;;12.38;100.00;100661.75;4965423;28;20094;-80
2022/10/26 03:33:40;;;;;;;7.72;3.95;;;;;;;12.35;100.00;100657.66;4961975;28;20131;-80
2022/10/26 03:36:09;;;;;;;9.07;3.80;;;;;;;12.38;100.00;100674.88;4965713;28;20043;-78
2022/10/26 03:38:36;;;;;;;9.68;4.03;;;;;;;12.35;100.00;100669.94;4959655;28;20055;-79
2022/10/26 03:41:02;;;;;;;9.38;4.38;;;;;;;12.34;100.00;100665.69;4960628;28;20039;-79
2022/10/26 03:43:29;;;;;;;8.88;4.07;;;;;;;12.37;100.00;100654.88;4960217;28;20051;-79
2022/10/26 03:45:56;;;;;;;5.72;4.00;;;;;;;12.37;100.00;100663.56;4960637;28;20047;-79
2022/10/26 03:48:23;;;;;;;6.63;3.72;;;;;;;12.40;100.00;100672.91;4960635;28;20137;-79
2022/10/26 03:50:50;;;;;;;10.90;4.18;;;;;;;12.35;100.00;100659.47;4959537;28;20066;-79
2022/10/26 03:53:18;;;;;;;9.45;4.15;;;;;;;12.31;100.00;100653.72;4959720;28;20142;-80
2022/10/26 03:55:44;;;;;;;10.07;4.50;;;;;;;12.35;100.00;100664.72;4961183;28;20122;-80
2022/10/26 03:58:11;;;;;;;8.55;4.30;;;;;;;12.38;100.00;100659.13;4970193;28;20050;-78
2022/10/26 04:00:38;;;;;;;10.45;4.40;;;;;;;12.39;100.00;100663.38;4969553;28;20075;-78
2022/10/26 04:03:04;;;;;;;7.78;3.92;;;;;;;12.42;100.00;100660.44;4969173;28;20066;-79
2022/10/26 04:05:31;;;;;;;5.85;3.90;;;;;;;12.41;100.00;100671.91;4962315;28;20085;-79
2022/10/26 04:07:59;;;;;;;10.50;4.28;;;;;;;12.40;100.00;100660.59;4959738;28;20083;-79
2022/10/26 04:10:27;;;;;;;7.63;4.35;;;;;;;12.42;100.00;100658.63;4959367;28;20059;-79
2022/10/26 04:12:55;;;;;;;9.25;4.40;;;;;;;12.44;100.00;100664.53;4963138;28;20134;-79
2022/10/26 04:15:22;;;;;;;9.88;4.30;;;;;;;12.44;100.00;100668.97;4963669;28;20071;-79
2022/10/26 04:17:54;;;;;;;11.18;4.68;;;;;;;12.44;100.00;100667.16;4963538;28;20078;-78
2022/10/26 04:20:21;;;;;;;9.73;4.15;;;;;;;12.52;100.00;100676.81;4964326;28;20054;-79
2022/10/26 04:22:48;;;;;;;8.02;4.03;;;;;;;12.52;100.00;100667.16;4966004;28;20506;-79
2022/10/26 04:25:14;;;;;;;12.13;4.50;;;;;;;12.54;100.00;100675.66;4964776;28;20119;-79
2022/10/26 04:27:42;;;;;;;9.80;4.10;;;;;;;12.58;100.00;100676.16;4964910;28;20078;-79
2022/10/26 04:30:10;;;;;;;10.63;4.30;;;;;;;12.58;100.00;100676.16;4963520;28;20138;-79
2022/10/26 04:32:36;;;;;;;17.80;4.70;;;;;;;12.59;100.00;100678.63;4964425;28;20066;-79
2022/10/26 04:35:03;;;;;;;13.85;4.53;;;;;;;12.56;100.00;100680.75;4963672;28;20077;-79
2022/10/26 04:37:30;;;;;;;12.00;4.32;;;;;;;12.54;100.00;100670.41;4961160;28;20146;-80
2022/10/26 04:39:56;;;;;;;8.95;4.32;;;;;;;12.52;100.00;100666.31;4962706;28;20143;-79
2022/10/26 04:42:23;;;;;;;10.73;4.63;;;;;;;12.56;100.00;100673.69;4963951;28;20062;-78
2022/10/26 04:44:51;;;;;;;7.55;4.30;;;;;;;12.51;100.00;100670.75;4964382;28;20494;-79
2022/10/26 04:47:17;;;;;;;7.63;4.07;;;;;;;12.55;100.00;100673.88;4962113;28;20485;-78
2022/10/26 04:49:44;;;;;;;7.63;4.22;;;;;;;12.56;100.00;100662.38;4963674;28;20075;-79
2022/10/26 04:52:11;;;;;;;11.43;4.40;;;;;;;12.59;100.00;100662.88;4963978;28;20130;-79
2022/10/26 04:54:37;;;;;;;8.43;4.10;;;;;;;12.57;100.00;100672.72;4962718;28;20097;-80
2022/10/26 04:57:04;;;;;;;6.10;3.90;;;;;;;12.56;100.00;100672.88;4960988;28;20147;-80
2022/10/26 04:59:30;;;;;;;10.07;4.38;;;;;;;12.58;100.00;100665.66;4960047;28;20153;-78
2022/10/26 05:01:58;;;;;;;13.20;4.30;;;;;;;12.56;100.00;100665.81;4961950;28;20071;-79
2022/10/26 05:04:26;;;;;;;13.88;4.60;;;;;;;12.61;100.00;100665.31;4962234;28;20091;-79
2022/10/26 05:06:53;;;;;;;12.95;4.43;;;;;;;12.69;100.00;100667.94;4962659;28;20134;-79
2022/10/26 05:09:19;;;;;;;10.10;4.35;;;;;;;12.71;100.00;100665.94;4963571;28;20713;-79
2022/10/26 05:11:46;;;;;;;11.15;4.20;;;;;;;12.74;100.00;100660.38;4961297;28;20106;-80
2022/10/26 05:14:13;;;;;;;12.68;5.00;;;;;;;12.80;100.00;100664.91;4964205;28;20062;-79
2022/10/26 05:16:39;;;;;;;8.38;4.45;;;;;;;12.86;100.00;100661.63;4964613;28;20087;-79
2022/10/26 05:19:07;;;;;;;7.35;4.50;;;;;;;12.98;100.00;100661.25;4961924;28;20550;-78
2022/10/26 05:21:34;;;;;;;8.07;4.07;;;;;;;13.00;100.00;100656.66;4961349;28;20078;-77
2022/10/26 05:24:00;;;;;;;6.55;4.28;;;;;;;12.99;100.00;100661.06;4961884;28;20129;-79
2022/10/26 05:26:27;;;;;;;9.38;4.18;;;;;;;12.99;100.00;100657.63;4961789;28;20075;-79
2022/10/26 05:28:54;;;;;;;7.70;4.03;;;;;;;13.00;100.00;100657.47;4961719;28;20058;-79
2022/10/26 05:31:20;;;;;;;7.07;4.35;;;;;;;13.05;100.00;100663.03;4962694;28;20114;-79
2022/10/26 05:33:49;;;;;;;7.72;3.97;;;;;;;13.11;100.00;100672.84;4965725;28;20213;-78
2022/10/26 05:36:17;;;;;;;8.63;4.20;;;;;;;13.11;100.00;100661.53;4965655;28;20051;-77
2022/10/26 05:38:43;;;;;;;16.30;3.90;;;;;;;13.18;100.00;100659.88;4965461;28;20111;-79
2022/10/26 05:41:10;;;;;;;9.95;4.13;;;;;;;13.20;100.00;100665.78;4966590;28;20079;-79
2022/10/26 05:43:37;;;;;;;13.63;3.92;;;;;;;13.16;100.00;100654.78;4967230;28;20074;-79
2022/10/26 05:46:03;;;;;;;11.82;5.47;;;;;;;13.20;100.00;100660.53;4966927;28;20051;-79
2022/10/26 05:48:30;;;;;;;10.18;4.97;;;;;;;13.26;100.00;100657.19;4966111;28;20054;-79
2022/10/26 05:50:59;;;;;;;10.02;4.90;;;;;;;13.20;100.00;100644.75;4967413;28;20126;-79
2022/10/26 05:53:27;;;;;;;14.95;9.18;;;;;;;13.25;100.00;100659.00;4965716;28;20161;-80
2022/10/26 05:55:54;;;;;;;22.30;12.65;;;;;;;13.28;100.00;100663.09;4965486;28;20146;-81
2022/10/26 05:58:21;;;;;;;35.65;28.08;;;;;;;13.28;100.00;100663.91;4964587;28;20134;-79
2022/10/26 06:01:06;;;;;;;14.07;11.18;;;;;;;13.29;100.00;100689.19;4965307;28;20110;-80
2022/10/26 06:03:43;;;;;;;15.15;11.77;;;;;;;13.43;100.00;100682.41;4962123;28;20098;-79
2022/10/26 06:06:13;;;;;;;9.73;5.28;;;;;;;13.49;100.00;100681.69;4962281;28;20057;-79
2022/10/26 06:08:42;;;;;;;7.75;4.07;;;;;;;13.60;100.00;100699.72;4959076;28;20410;-80
2022/10/26 06:11:10;;;;;;;9.20;4.32;;;;;;;13.58;100.00;100695.63;4958736;28;20161;-79
2022/10/26 06:13:37;;;;;;;13.57;8.57;;;;;;;13.59;100.00;100705.97;4958923;28;20163;-80
2022/10/26 06:16:20;;;;;;;10.88;5.38;;;;;;;13.59;100.00;100698.09;4959795;28;20047;-80
2022/10/26 06:18:56;;;;;;;9.75;6.03;;;;;;;13.55;100.00;100707.31;4957759;28;20509;-80
2022/10/26 06:21:39;;;;;;;17.30;6.43;;;;;;;13.55;100.00;100717.81;4959287;28;20130;-81
2022/10/26 06:24:12;;;;;;;7.65;4.53;;;;;;;13.51;100.00;100719.16;4960909;28;20107;-81
2022/10/26 06:26:43;;;;;;;;;;;;;;;13.53;100.00;100729.50;4960650;28;20406;-80
2022/10/26 06:29:28;;;;;;;17.23;6.88;;;;;;;13.52;100.00;100718.16;4958395;28;20300;-80
2022/10/26 06:31:55;;;;;;;13.23;8.07;;;;;;;13.50;100.00;100725.41;4959220;28;20055;-80
2022/10/26 06:34:27;;;;;;;13.45;9.10;;;;;;;13.45;100.00;100726.91;4958343;28;20137;-80
2022/10/26 06:36:57;;;;;;;16.25;11.57;;;;;;;13.51;100.00;100732.31;4960268;28;20111;-81
2022/10/26 06:39:27;;;;;;;16.05;10.07;;;;;;;13.48;100.00;100722.13;4961451;28;20134;-80
2022/10/26 06:41:55;;;;;;;13.43;7.32;;;;;;;13.46;100.00;100721.47;4962812;28;20111;-80
2022/10/26 06:44:24;;;;;;;10.38;6.25;;;;;;;13.43;100.00;100724.44;4959760;28;20086;-80
2022/10/26 06:46:59;;;;;;;11.50;5.80;;;;;;;13.35;100.00;100716.59;4960099;28;20228;-80
2022/10/26 06:49:30;;;;;;;39.25;24.27;;;;;;;13.29;100.00;100712.84;4961214;28;20055;-80
2022/10/26 06:54:50;;;;;;;12.65;6.50;;;;;;;13.24;100.00;100715.16;4959058;29;20059;-80
2022/10/26 06:57:18;;;;;;;11.90;7.53;;;;;;;13.23;100.00;100707.50;4942037;29;20075;-80
2022/10/26 06:59:51;;;;;;;8.82;6.13;;;;;;;13.26;100.00;100717.63;4942280;29;20079;-81
2022/10/26 07:02:18;;;;;;;13.35;6.88;;;;;;;13.27;100.00;100716.63;4960382;29;20054;-80
2022/10/26 07:04:45;;;;;;;15.88;8.30;;;;;;;13.23;100.00;100723.25;4961563;29;20143;-80
2022/10/26 07:07:16;;;;;;;10.13;6.03;;;;;;;13.27;100.00;100724.53;4959670;29;20086;-79
2022/10/26 07:09:44;;;;;;;10.67;7.30;;;;;;;13.28;100.00;100731.41;4958479;28;20055;-79
2022/10/26 07:12:13;;;;;;;10.23;5.95;;;;;;;13.35;100.00;100736.81;4959495;28;20139;-79
2022/10/26 07:14:40;;;;;;;12.20;5.70;;;;;;;13.40;100.00;100737.94;4960313;28;20078;-79
2022/10/26 07:17:08;;;;;;;11.43;6.05;;;;;;;13.51;100.00;100740.19;4961180;28;20111;-79
2022/10/26 07:19:35;;;;;;;8.60;4.90;;;;;;;13.49;100.00;100726.41;4959400;28;20158;-79
2022/10/26 07:22:02;;;;;;;7.50;4.90;;;;;;;13.56;100.00;100744.94;4959645;28;20115;-78
2022/10/26 07:24:28;;;;;;;9.73;5.20;;;;;;;13.63;100.00;100743.25;4955779;28;20126;-78
2022/10/26 07:26:57;;;;;;;11.63;5.10;;;;;;;13.62;100.00;100733.72;4955654;28;20083;-78
2022/10/26 07:29:26;;;;;;;13.38;5.38;;;;;;;13.60;100.00;100740.97;4957304;28;20518;-79
2022/10/26 07:31:53;;;;;;;8.70;4.93;;;;;;;13.55;100.00;100738.84;4958323;29;22020;-78
2022/10/26 07:34:19;;;;;;;13.38;5.68;;;;;;;13.59;100.00;100750.66;4959112;28;20114;-79
2022/10/26 07:36:50;;;;;;;11.85;5.55;;;;;;;13.50;100.00;100756.94;4958798;28;20122;-79
2022/10/26 07:39:17;;;;;;;11.20;5.40;;;;;;;13.46;100.00;100758.28;4958319;28;20082;-79
2022/10/26 07:41:45;;;;;;;12.05;5.80;;;;;;;13.39;100.00;100756.50;4959464;28;20082;-79
2022/10/26 07:44:16;;;;;;;11.23;5.68;;;;;;;13.33;100.00;100755.38;4959232;28;20557;-79
2022/10/26 07:46:42;;;;;;;10.73;5.60;;;;;;;13.32;100.00;100753.75;4958116;28;20433;-79
2022/10/26 07:49:09;;;;;;;10.32;5.22;;;;;;;13.29;100.00;100747.00;4955495;28;20150;-78
2022/10/26 07:51:36;;;;;;;10.20;5.90;;;;;;;13.30;100.00;100747.84;4956088;28;20098;-79
2022/10/26 07:54:02;;;;;;;15.30;5.80;;;;;;;13.41;100.00;100747.47;4958384;28;20047;-79
2022/10/26 07:56:29;;;;;;;16.88;5.72;;;;;;;13.87;100.00;100760.69;4960759;28;20059;-78
2022/10/26 07:58:56;;;;;;;9.38;5.15;;;;;;;14.36;100.00;100765.59;4961273;28;20082;-79
2022/10/26 08:01:25;;;;;;;12.48;6.13;;;;;;;15.08;100.00;100758.00;4960834;29;20493;-80
2022/10/26 08:03:53;;;;;;;8.75;4.68;;;;;;;14.86;100.00;100750.00;4961474;28;20082;-79
2022/10/26 08:06:19;;;;;;;11.65;4.60;;;;;;;15.19;99.94;100744.34;4961006;28;20051;-79
2022/10/26 08:08:47;;;;;;;8.52;4.88;;;;;;;15.00;98.96;100750.19;4961176;29;20445;-79
2022/10/26 08:11:14;;;;;;;9.15;4.53;;;;;;;15.14;98.64;100749.34;4966528;29;20047;-78
2022/10/26 08:13:41;;;;;;;9.65;5.20;;;;;;;15.16;97.71;100755.25;4964333;29;20075;-78
2022/10/26 08:16:08;;;;;;;10.88;5.00;;;;;;;15.36;97.33;100753.69;4958247;28;20122;-78
2022/10/26 08:18:36;;;;;;;10.70;5.50;;;;;;;16.06;95.37;100763.66;4956239;29;20343;-80
2022/10/26 08:21:05;;;;;;;8.40;4.28;;;;;;;16.09;93.26;100767.69;4959719;28;20134;-79
2022/10/26 08:23:32;;;;;;;12.60;4.60;;;;;;;16.24;92.28;100769.28;4959244;28;20146;-79
2022/10/26 08:26:02;;;;;;;9.85;5.20;;;;;;;16.44;90.89;100769.47;4959939;28;20094;-79
2022/10/26 08:28:31;;;;;;;10.85;4.38;;;;;;;16.34;90.65;100762.88;4960110;28;20114;-79
2022/10/26 08:30:58;;;;;;;10.00;4.45;;;;;;;16.16;91.96;100779.97;4959723;28;20082;-78
2022/10/26 08:33:25;;;;;;;12.13;4.93;;;;;;;16.10;91.99;100774.63;4957556;28;20094;-78
2022/10/26 08:35:56;;;;;;;11.75;5.00;;;;;;;15.67;93.16;100777.22;4957151;28;20122;-78
2022/10/26 08:38:26;;;;;;;9.52;3.85;;;;;;;15.50;94.11;100779.25;4955953;29;20086;-81
2022/10/26 08:40:54;;;;;;;11.35;4.57;;;;;;;15.39;94.48;100777.06;4958325;28;20093;-79
2022/10/26 08:43:30;;;;;;;9.23;4.38;;;;;;;15.20;94.89;100774.97;4957780;28;20123;-79
2022/10/26 08:46:08;;;;;;;9.25;4.88;;;;;;;15.13;95.58;100772.25;4939248;28;20423;-79
2022/10/26 08:48:43;;;;;;;10.20;4.60;;;;;;;15.06;95.64;100762.63;4946466;29;20071;-80
2022/10/26 08:51:20;;;;;;;11.65;4.75;;;;;;;14.93;95.80;100756.19;4959182;28;20055;-81
2022/10/26 08:53:55;;;;;;;8.25;5.10;;;;;;;14.97;96.03;100774.25;4954518;29;20160;-79
2022/10/26 08:56:26;;;;;;;12.45;4.80;;;;;;;15.00;96.40;100768.63;4953596;29;20054;-78
2022/10/26 08:59:01;;;;;;;9.30;4.60;;;;;;;14.96;96.43;100762.91;4952016;28;20086;-78
2022/10/26 09:01:32;;;;;;;9.05;4.50;;;;;;;15.01;96.64;100773.72;4960060;28;20422;-79
2022/10/26 09:04:03;;;;;;;11.18;4.75;;;;;;;15.03;96.77;100784.91;4957955;29;20071;-79
2022/10/26 09:06:44;;;;;;;11.25;5.00;;;;;;;15.24;96.63;100797.34;4960441;28;20047;-79
2022/10/26 09:09:33;;;;;;;11.70;4.80;;;;;;;15.32;96.92;100791.16;4958250;29;20091;-79
2022/10/26 09:12:16;;;;;;;12.35;4.80;;;;;;;15.41;95.93;100804.06;4955629;29;20051;-79
2022/10/26 09:14:53;;;;;;;10.35;4.30;;;;;;;15.66;94.99;100809.88;4961560;28;20051;-78
2022/10/26 09:17:36;;;;;;;12.52;4.30;;;;;;;15.76;92.99;100814.88;4960234;28;20110;-79
2022/10/26 09:39:55;;;;;;;10.77;4.32;;;;;;;16.12;90.60;100825.41;4942058;28;20095;-80
2022/10/26 09:46:11;;;;;;;9.70;4.68;;;;;;;16.36;90.48;100848.00;4901418;29;20052;-80
2022/10/26 09:49:35;;;;;;;13.20;5.30;;;;;;;16.51;90.17;100846.94;4959136;29;20082;-80
2022/10/26 09:52:25;;;;;;;;;;;;;;;;;;;;;
2022/10/26 10:06:02;;;;;;;10.43;4.38;;;;;;;16.89;88.92;100834.25;4952750;29;20052;-80
2022/10/26 10:08:34;;;;;;;13.45;5.30;;;;;;;17.14;88.37;100866.34;4956155;28;20056;-80
2022/10/26 10:11:05;;;;;;;13.38;4.63;;;;;;;17.22;88.35;100862.75;4950283;28;20078;-80
2022/10/26 10:13:33;;;;;;;11.00;4.50;;;;;;;17.34;88.14;100874.44;4960987;28;20051;-80
2022/10/26 10:16:06;;;;;;;9.10;4.15;;;;;;;17.45;87.78;100887.13;4950622;28;20487;-80
2022/10/26 10:18:34;;;;;;;10.75;5.10;;;;;;;17.50;87.05;100883.88;4960575;28;20131;-80
2022/10/26 10:21:02;;;;;;;9.65;4.75;;;;;;;17.49;87.04;100892.81;4953040;29;20055;-79
2022/10/26 10:23:33;;;;;;;12.88;4.88;;;;;;;17.66;87.26;100883.59;4956722;29;20181;-80
2022/10/26 10:26:03;;;;;;;8.63;4.50;;;;;;;17.76;86.58;100896.47;4957945;29;20222;-80
2022/10/26 10:28:30;;;;;;;7.05;4.22;;;;;;;17.95;86.10;100895.75;4953713;28;20074;-80
2022/10/26 10:30:59;;;;;;;10.15;4.20;;;;;;;18.00;85.56;100905.72;4952563;29;20083;-79
2022/10/26 10:33:34;;;;;;;13.68;4.65;;;;;;;18.11;85.56;100910.44;4952792;29;20051;-80
2022/10/26 10:36:02;;;;;;;9.82;4.55;;;;;;;18.26;85.19;100911.13;4952747;28;20437;-79
2022/10/26 10:38:30;;;;;;;9.88;4.60;;;;;;;18.37;85.52;100920.31;4948903;29;20541;-80
2022/10/26 10:41:02;;;;;;;9.30;4.60;;;;;;;18.47;84.88;100920.72;4949590;29;20147;-80
2022/10/26 10:43:29;;;;;;;;;;;;;;;18.59;84.56;100916.47;4952409;29;20410;-81
2022/10/26 10:46:09;;;;;;;9.93;4.55;;;;;;;18.60;84.57;100917.28;4952665;29;20012;-81
2022/10/26 10:50:14;;;;;;;;;;;;;;;;;;;;;
2022/10/26 10:53:37;;;;;;;8.02;4.18;;;;;;;19.06;82.75;100941.22;4945502;28;20055;-80
2022/10/26 11:10:59;;;;;;;10.82;4.13;;;;;;;19.60;79.31;100948.16;4866192;29;20053;-80
2022/10/26 11:30:59;;;;;;;6.72;3.00;;;;;;;20.27;77.51;100952.22;4878288;29;20049;-80
2022/10/26 12:20:36;;;;;;;24.77;4.00;;;;;;;21.11;73.62;100971.34;4915313;29;20131;-78
2022/10/26 12:23:12;;;;;;;12.65;4.55;;;;;;;21.12;74.25;100980.94;4964625;28;20079;-80
2022/10/26 12:29:26;;;;;;;12.00;3.20;;;;;;;21.04;73.42;100980.41;4955041;29;20066;-79
2022/10/26 12:33:14;;;;;;;14.55;3.50;;;;;;;20.77;74.03;100966.50;4952341;28;20122;-79
2022/10/26 12:56:17;;;;;;;15.70;3.78;;;;;;;21.02;74.13;101001.09;4993552;23;20047;-81
2022/10/26 12:59:22;;;;;;;9.63;2.97;;;;;;;20.93;71.03;100983.75;4980787;28;20058;-82
2022/10/26 13:05:46;;;;;;;5.80;2.95;;;;;;;20.83;70.16;100990.34;4903014;29;20435;-83
2022/10/26 13:08:15;;;;;;;14.85;3.60;;;;;;;20.71;70.69;100986.78;4923764;29;20053;-80
2022/10/26 13:13:56;;;;;;;8.60;2.55;;;;;;;20.74;70.56;100982.88;4957445;29;20074;-81
2022/10/26 13:19:34;;;;;;;6.03;2.55;;;;;;;20.68;71.10;100984.53;4960295;28;20063;-81
2022/10/26 13:23:10;;;;;;;14.05;3.83;;;;;;;20.64;71.66;100979.84;4965282;28;20510;-81
2022/10/26 13:25:46;;;;;;;15.40;3.55;;;;;;;20.62;71.67;100998.69;4953409;29;20061;-78
2022/10/26 13:28:58;;;;;;;4.80;2.60;;;;;;;20.50;71.96;100974.59;4960286;28;20129;-80
2022/10/26 13:34:50;;;;;;;10.35;3.80;;;;;;;20.59;72.14;100999.09;4943154;29;20055;-80
2022/10/26 13:37:23;;;;;;;9.23;3.15;;;;;;;20.61;70.61;101001.56;4961456;29;20055;-78
2022/10/26 13:39:54;;;;;;;14.32;3.22;;;;;;;20.62;70.96;101008.50;4945550;29;20083;-81
2022/10/26 13:42:26;;;;;;;6.80;3.00;;;;;;;20.49;70.26;100993.41;4951178;29;20082;-79
2022/10/26 13:44:55;;;;;;;6.05;2.60;;;;;;;20.35;71.08;100989.97;4946951;29;20059;-80
2022/10/26 13:47:34;;;;;;;11.77;2.75;;;;;;;20.53;71.60;101015.91;4945876;29;20060;-78
2022/10/26 13:50:07;;;;;;;3.70;2.58;;;;;;;20.48;71.31;101019.19;4950805;29;20052;-79
2022/10/26 13:52:38;;;;;;;22.02;5.30;;;;;;;20.43;72.45;101020.84;4953098;29;20510;-80
2022/10/26 13:55:14;;;;;;;9.20;3.03;;;;;;;20.47;72.38;101025.53;4965837;29;20518;-81
2022/10/26 13:58:01;;;;;;;11.30;2.80;;;;;;;20.48;72.91;101013.06;4950118;29;20098;-79
2022/10/26 14:00:28;;;;;;;5.47;2.85;;;;;;;20.57;72.56;101021.59;4963556;28;20043;-80
2022/10/26 14:02:54;;;;;;;6.05;3.20;;;;;;;20.52;72.39;101020.41;4950276;29;20058;-79
2022/10/26 14:05:22;;;;;;;3.92;2.92;;;;;;;20.60;72.63;101022.00;4966610;28;20130;-82
2022/10/26 14:07:53;;;;;;;10.25;2.85;;;;;;;20.66;72.01;101034.47;4963436;29;20134;-81
2022/10/26 14:10:34;;;;;;;12.45;2.97;;;;;;;20.69;71.45;101023.41;4961827;28;20130;-81
2022/10/26 14:13:09;;;;;;;11.75;3.35;;;;;;;20.71;71.30;101021.34;4965162;28;20134;-80
2022/10/26 14:15:36;;;;;;;10.43;3.30;;;;;;;20.64;71.91;101030.38;4965216;29;20538;-82
2022/10/26 14:18:04;;;;;;;11.18;2.75;;;;;;;20.62;71.31;101029.78;4962209;29;20107;-81